sensor_id;sensor_type;location;lat;lon;timestamp;pressure;altitude;pressure_sealevel;temperature
32039;BMP280;18549;42.286;22.688;2023-04-19T00:02:09;95223.91;;;14.98
32039;BMP280;18549;42.286;22.688;2023-04-19T00:04:36;95227.19;;;14.98
32039;BMP280;18549;42.286;22.688;2023-04-19T00:07:03;95219.59;;;15.00
32039;BMP280;18549;42.286;22.688;2023-04-19T00:09:30;95219.59;;;15.00
32039;BMP280;18549;42.286;22.688;2023-04-19T00:11:57;95221.16;;;15.01
32039;BMP280;18549;42.286;22.688;2023-04-19T00:14:25;95222.06;;;15.00
32039;BMP280;18549;42.286;22.688;2023-04-19T00:16:53;95217.75;;;15.02
32039;BMP280;18549;42.286;22.688;2023-04-19T00:19:20;95212.75;;;15.02
32039;BMP280;18549;42.286;22.688;2023-04-19T00:21:47;95215.37;;;15.00
32039;BMP280;18549;42.286;22.688;2023-04-19T00:24:14;95217.09;;;15.00
32039;BMP280;18549;42.286;22.688;2023-04-19T00:26:41;95208.94;;;14.98
32039;BMP280;18549;42.286;22.688;2023-04-19T00:29:08;95213.00;;;14.99
32039;BMP280;18549;42.286;22.688;2023-04-19T00:31:35;95206.44;;;14.98
32039;BMP280;18549;42.286;22.688;2023-04-19T00:34:05;95198.81;;;14.99
32039;BMP280;18549;42.286;22.688;2023-04-19T00:36:32;95198.81;;;14.99
32039;BMP280;18549;42.286;22.688;2023-04-19T00:39:00;95207.50;;;14.95
32039;BMP280;18549;42.286;22.688;2023-04-19T00:41:28;95200.91;;;14.94
32039;BMP280;18549;42.286;22.688;2023-04-19T00:43:54;95200.13;;;14.94
32039;BMP280;18549;42.286;22.688;2023-04-19T00:46:21;95199.22;;;14.95
32039;BMP280;18549;42.286;22.688;2023-04-19T00:48:49;95202.50;;;14.95
32039;BMP280;18549;42.286;22.688;2023-04-19T00:51:18;95203.03;;;14.80
32039;BMP280;18549;42.286;22.688;2023-04-19T00:53:45;95192.78;;;14.74
32039;BMP280;18549;42.286;22.688;2023-04-19T00:56:12;95197.38;;;14.78
32039;BMP280;18549;42.286;22.688;2023-04-19T00:58:40;95199.87;;;14.78
32039;BMP280;18549;42.286;22.688;2023-04-19T01:01:07;95194.75;;;14.80
32039;BMP280;18549;42.286;22.688;2023-04-19T01:03:33;95194.59;;;14.81
32039;BMP280;18549;42.286;22.688;2023-04-19T01:06:01;95189.63;;;14.81
32039;BMP280;18549;42.286;22.688;2023-04-19T01:08:29;95191.22;;;14.82
32039;BMP280;18549;42.286;22.688;2023-04-19T01:10:56;95186.34;;;14.81
32039;BMP280;18549;42.286;22.688;2023-04-19T01:13:22;95187.78;;;14.83
32039;BMP280;18549;42.286;22.688;2023-04-19T01:15:49;95181.12;;;14.84
32039;BMP280;18549;42.286;22.688;2023-04-19T01:18:16;95188.44;;;14.85
32039;BMP280;18549;42.286;22.688;2023-04-19T01:20:43;95186.88;;;14.84
32039;BMP280;18549;42.286;22.688;2023-04-19T01:23:12;95180.97;;;14.85
32039;BMP280;18549;42.286;22.688;2023-04-19T01:25:38;95184.50;;;14.83
32039;BMP280;18549;42.286;22.688;2023-04-19T01:28:05;95183.59;;;14.84
32039;BMP280;18549;42.286;22.688;2023-04-19T01:30:32;95186.22;;;14.82
32039;BMP280;18549;42.286;22.688;2023-04-19T01:32:59;95181.22;;;14.82
32039;BMP280;18549;42.286;22.688;2023-04-19T01:35:26;95172.16;;;14.81
32039;BMP280;18549;42.286;22.688;2023-04-19T01:37:53;95181.12;;;14.84
32039;BMP280;18549;42.286;22.688;2023-04-19T01:40:23;95180.31;;;14.83
32039;BMP280;18549;42.286;22.688;2023-04-19T01:42:50;95182.78;;;14.83
32039;BMP280;18549;42.286;22.688;2023-04-19T01:45:17;95175.47;;;14.82
32039;BMP280;18549;42.286;22.688;2023-04-19T01:47:44;95170.47;;;14.82
32039;BMP280;18549;42.286;22.688;2023-04-19T01:50:11;95170.72;;;14.79
32039;BMP280;18549;42.286;22.688;2023-04-19T01:52:40;95167.03;;;14.83
32039;BMP280;18549;42.286;22.688;2023-04-19T01:55:08;95171.13;;;14.84
32039;BMP280;18549;42.286;22.688;2023-04-19T01:57:36;95171.91;;;14.84
32039;BMP280;18549;42.286;22.688;2023-04-19T02:00:04;95166.00;;;14.85
32039;BMP280;18549;42.286;22.688;2023-04-19T02:02:31;95174.41;;;14.84
32039;BMP280;18549;42.286;22.688;2023-04-19T02:05:00;95174.13;;;14.87
32039;BMP280;18549;42.286;22.688;2023-04-19T02:07:26;95177.69;;;14.84
32039;BMP280;18549;42.286;22.688;2023-04-19T02:09:54;95169.41;;;14.84
32039;BMP280;18549;42.286;22.688;2023-04-19T02:12:20;95178.47;;;14.85
32039;BMP280;18549;42.286;22.688;2023-04-19T02:14:49;95170.19;;;14.84
32039;BMP280;18549;42.286;22.688;2023-04-19T02:17:15;95172.69;;;14.84
32039;BMP280;18549;42.286;22.688;2023-04-19T02:19:42;95176.91;;;14.84
32039;BMP280;18549;42.286;22.688;2023-04-19T02:22:10;95174.41;;;14.84
32039;BMP280;18549;42.286;22.688;2023-04-19T02:24:37;95176.13;;;14.84
32039;BMP280;18549;42.286;22.688;2023-04-19T02:27:04;95175.97;;;14.85
32039;BMP280;18549;42.286;22.688;2023-04-19T02:29:31;95168.63;;;14.84
32039;BMP280;18549;42.286;22.688;2023-04-19T02:31:59;95176.13;;;14.84
32039;BMP280;18549;42.286;22.688;2023-04-19T02:34:30;95179.41;;;14.84
32039;BMP280;18549;42.286;22.688;2023-04-19T02:36:57;95180.97;;;14.85
32039;BMP280;18549;42.286;22.688;2023-04-19T02:39:24;95174.41;;;14.84
32039;BMP280;18549;42.286;22.688;2023-04-19T02:41:51;95174.41;;;14.84
32039;BMP280;18549;42.286;22.688;2023-04-19T02:44:18;95176.91;;;14.84
32039;BMP280;18549;42.286;22.688;2023-04-19T02:46:47;95171.25;;;14.82
32039;BMP280;18549;42.286;22.688;2023-04-19T02:49:16;95176.25;;;14.82
32039;BMP280;18549;42.286;22.688;2023-04-19T02:51:42;95178.06;;;14.80
32039;BMP280;18549;42.286;22.688;2023-04-19T02:54:10;95171.66;;;14.78
32039;BMP280;18549;42.286;22.688;2023-04-19T02:56:37;95163.38;;;14.77
32039;BMP280;18549;42.286;22.688;2023-04-19T02:59:04;95164.94;;;14.78
32039;BMP280;18549;42.286;22.688;2023-04-19T03:01:31;95168.63;;;14.74
32039;BMP280;18549;42.286;22.688;2023-04-19T03:03:59;95166.28;;;14.73
32039;BMP280;18549;42.286;22.688;2023-04-19T03:06:27;95171.09;;;14.74
32039;BMP280;18549;42.286;22.688;2023-04-19T03:08:54;95167.84;;;14.74
32039;BMP280;18549;42.286;22.688;2023-04-19T03:11:21;95161.41;;;14.71
32039;BMP280;18549;42.286;22.688;2023-04-19T03:13:48;95159.84;;;14.70
32039;BMP280;18549;42.286;22.688;2023-04-19T03:16:15;95164.69;;;14.72
32039;BMP280;18549;42.286;22.688;2023-04-19T03:18:44;95160.63;;;14.71
32039;BMP280;18549;42.286;22.688;2023-04-19T03:21:11;95160.50;;;14.72
32039;BMP280;18549;42.286;22.688;2023-04-19T03:23:39;95160.63;;;14.71
32039;BMP280;18549;42.286;22.688;2023-04-19T03:26:06;95155.75;;;14.69
32039;BMP280;18549;42.286;22.688;2023-04-19T03:28:33;95150.25;;;14.66
32039;BMP280;18549;42.286;22.688;2023-04-19T03:31:00;95153.53;;;14.66
32039;BMP280;18549;42.286;22.688;2023-04-19T03:33:27;95158.53;;;14.66
32039;BMP280;18549;42.286;22.688;2023-04-19T03:35:54;95159.19;;;14.68
32039;BMP280;18549;42.286;22.688;2023-04-19T03:38:21;95162.56;;;14.67
32039;BMP280;18549;42.286;22.688;2023-04-19T03:40:50;95160.75;;;14.69
32039;BMP280;18549;42.286;22.688;2023-04-19T03:43:17;95170.06;;;14.67
32039;BMP280;18549;42.286;22.688;2023-04-19T03:45:45;95160.09;;;14.67
32039;BMP280;18549;42.286;22.688;2023-04-19T03:48:12;95163.50;;;14.66
32039;BMP280;18549;42.286;22.688;2023-04-19T03:50:38;95161.78;;;14.67
32039;BMP280;18549;42.286;22.688;2023-04-19T03:53:05;95162.56;;;14.67
32039;BMP280;18549;42.286;22.688;2023-04-19T03:55:32;95166.00;;;14.66
32039;BMP280;18549;42.286;22.688;2023-04-19T03:58:01;95162.72;;;14.66
32039;BMP280;18549;42.286;22.688;2023-04-19T04:00:27;95161.78;;;14.67
32039;BMP280;18549;42.286;22.688;2023-04-19T04:02:54;95166.00;;;14.66
32039;BMP280;18549;42.286;22.688;2023-04-19T04:05:22;95166.00;;;14.66
32039;BMP280;18549;42.286;22.688;2023-04-19T04:07:51;95161.94;;;14.65
32039;BMP280;18549;42.286;22.688;2023-04-19T04:10:18;95160.22;;;14.66
32039;BMP280;18549;42.286;22.688;2023-04-19T04:12:44;95156.03;;;14.66
32039;BMP280;18549;42.286;22.688;2023-04-19T04:15:13;95156.81;;;14.67
32039;BMP280;18549;42.286;22.688;2023-04-19T04:17:40;95166.13;;;14.65
32039;BMP280;18549;42.286;22.688;2023-04-19T04:20:07;95162.84;;;14.64
32039;BMP280;18549;42.286;22.688;2023-04-19T04:22:39;95167.06;;;14.64
32039;BMP280;18549;42.286;22.688;2023-04-19T04:25:07;95168.63;;;14.65
32039;BMP280;18549;42.286;22.688;2023-04-19T04:27:34;95167.84;;;14.64
32039;BMP280;18549;42.286;22.688;2023-04-19T04:30:00;95167.84;;;14.64
32039;BMP280;18549;42.286;22.688;2023-04-19T04:32:29;95166.13;;;14.65
32039;BMP280;18549;42.286;22.688;2023-04-19T04:35:00;95166.94;;;14.65
32039;BMP280;18549;42.286;22.688;2023-04-19T04:37:44;95169.44;;;14.65
32039;BMP280;18549;42.286;22.688;2023-04-19T04:40:13;95174.41;;;14.65
32039;BMP280;18549;42.286;22.688;2023-04-19T04:42:40;95167.84;;;14.64
32039;BMP280;18549;42.286;22.688;2023-04-19T04:45:08;95171.25;;;14.63
32039;BMP280;18549;42.286;22.688;2023-04-19T04:47:37;95172.31;;;14.61
32039;BMP280;18549;42.286;22.688;2023-04-19T04:50:05;95162.34;;;14.61
32039;BMP280;18549;42.286;22.688;2023-04-19T04:52:32;95171.25;;;14.63
32039;BMP280;18549;42.286;22.688;2023-04-19T04:54:59;95166.94;;;14.65
32039;BMP280;18549;42.286;22.688;2023-04-19T04:57:26;95168.63;;;14.65
32039;BMP280;18549;42.286;22.688;2023-04-19T04:59:52;95170.88;;;14.68
32039;BMP280;18549;42.286;22.688;2023-04-19T05:02:20;95169.16;;;14.68
32039;BMP280;18549;42.286;22.688;2023-04-19T05:04:53;95169.03;;;14.70
32039;BMP280;18549;42.286;22.688;2023-04-19T05:07:20;95167.06;;;14.73
32039;BMP280;18549;42.286;22.688;2023-04-19T05:09:47;95170.72;;;14.69
32039;BMP280;18549;42.286;22.688;2023-04-19T05:12:14;95170.47;;;14.72
32039;BMP280;18549;42.286;22.688;2023-04-19T05:14:41;95165.06;;;14.67
32039;BMP280;18549;42.286;22.688;2023-04-19T05:17:08;95171.00;;;14.66
32039;BMP280;18549;42.286;22.688;2023-04-19T05:19:34;95169.94;;;14.69
32039;BMP280;18549;42.286;22.688;2023-04-19T05:22:03;95175.72;;;14.69
32039;BMP280;18549;42.286;22.688;2023-04-19T05:24:30;95169.53;;;14.73
32039;BMP280;18549;42.286;22.688;2023-04-19T05:26:57;95170.47;;;14.72
32039;BMP280;18549;42.286;22.688;2023-04-19T05:29:23;95171.25;;;14.73
32039;BMP280;18549;42.286;22.688;2023-04-19T05:31:51;95172.59;;;14.77
32039;BMP280;18549;42.286;22.688;2023-04-19T05:34:17;95169.94;;;14.78
32039;BMP280;18549;42.286;22.688;2023-04-19T05:36:45;95170.47;;;14.82
32039;BMP280;18549;42.286;22.688;2023-04-19T05:39:15;95169.25;;;14.85
32039;BMP280;18549;42.286;22.688;2023-04-19T05:41:43;95169.69;;;14.90
32039;BMP280;18549;42.286;22.688;2023-04-19T05:44:10;95162.81;;;14.92
32039;BMP280;18549;42.286;22.688;2023-04-19T05:46:38;95173.34;;;14.96
32039;BMP280;18549;42.286;22.688;2023-04-19T05:49:05;95169.13;;;14.96
32039;BMP280;18549;42.286;22.688;2023-04-19T05:51:33;95164.69;;;15.00
32039;BMP280;18549;42.286;22.688;2023-04-19T05:54:01;95161.91;;;15.03
32039;BMP280;18549;42.286;22.688;2023-04-19T05:56:29;95166.78;;;15.04
32039;BMP280;18549;42.286;22.688;2023-04-19T05:58:56;95162.28;;;15.08
32039;BMP280;18549;42.286;22.688;2023-04-19T06:01:25;95156.81;;;15.14
32039;BMP280;18549;42.286;22.688;2023-04-19T06:03:52;95157.56;;;15.23
32039;BMP280;18549;42.286;22.688;2023-04-19T06:06:20;95155.16;;;15.31
32039;BMP280;18549;42.286;22.688;2023-04-19T06:08:47;95164.25;;;15.32
32039;BMP280;18549;42.286;22.688;2023-04-19T06:11:13;95162.78;;;15.39
32039;BMP280;18549;42.286;22.688;2023-04-19T06:13:42;95166.47;;;15.35
32039;BMP280;18549;42.286;22.688;2023-04-19T06:16:09;95171.47;;;15.35
32039;BMP280;18549;42.286;22.688;2023-04-19T06:18:36;95162.25;;;15.36
32039;BMP280;18549;42.286;22.688;2023-04-19T06:21:03;95162.91;;;15.38
32039;BMP280;18549;42.286;22.688;2023-04-19T06:23:31;95161.22;;;15.38
32039;BMP280;18549;42.286;22.688;2023-04-19T06:25:57;95166.22;;;15.38
32039;BMP280;18549;42.286;22.688;2023-04-19T06:28:24;95170.81;;;15.33
32039;BMP280;18549;42.286;22.688;2023-04-19T06:30:52;95163.59;;;15.30
32039;BMP280;18549;42.286;22.688;2023-04-19T06:33:19;95167.03;;;15.29
32039;BMP280;18549;42.286;22.688;2023-04-19T06:35:48;95165.97;;;15.32
32039;BMP280;18549;42.286;22.688;2023-04-19T06:38:16;95163.47;;;15.32
32039;BMP280;18549;42.286;22.688;2023-04-19T06:40:42;95168.19;;;15.35
32039;BMP280;18549;42.286;22.688;2023-04-19T06:43:09;95167.66;;;15.41
32039;BMP280;18549;42.286;22.688;2023-04-19T06:45:36;95162.09;;;15.47
32039;BMP280;18549;42.286;22.688;2023-04-19T06:48:05;95166.03;;;15.49
32039;BMP280;18549;42.286;22.688;2023-04-19T06:50:32;95164.84;;;15.53
32039;BMP280;18549;42.286;22.688;2023-04-19T06:53:00;95166.16;;;15.57
32039;BMP280;18549;42.286;22.688;2023-04-19T06:55:28;95174.59;;;15.47
32039;BMP280;18549;42.286;22.688;2023-04-19T06:57:55;95169.72;;;15.54
32039;BMP280;18549;42.286;22.688;2023-04-19T07:00:22;95165.09;;;15.59
32039;BMP280;18549;42.286;22.688;2023-04-19T07:02:49;95159.28;;;15.68
32039;BMP280;18549;42.286;22.688;2023-04-19T07:05:18;95164.62;;;15.73
32039;BMP280;18549;42.286;22.688;2023-04-19T07:07:44;95153.44;;;15.77
32039;BMP280;18549;42.286;22.688;2023-04-19T07:10:11;95163.94;;;15.81
32039;BMP280;18549;42.286;22.688;2023-04-19T07:12:38;95161.44;;;15.81
32039;BMP280;18549;42.286;22.688;2023-04-19T07:15:05;95159.59;;;15.83
32039;BMP280;18549;42.286;22.688;2023-04-19T07:17:33;95162.38;;;15.80
32039;BMP280;18549;42.286;22.688;2023-04-19T07:20:02;95163.16;;;15.80
32039;BMP280;18549;42.286;22.688;2023-04-19T07:22:32;95163.09;;;15.89
32039;BMP280;18549;42.286;22.688;2023-04-19T07:25:00;95167.28;;;15.98
32039;BMP280;18549;42.286;22.688;2023-04-19T07:27:27;95160.66;;;16.16
32039;BMP280;18549;42.286;22.688;2023-04-19T07:29:54;95162.44;;;16.23
32039;BMP280;18549;42.286;22.688;2023-04-19T07:32:21;95162.72;;;16.11
32039;BMP280;18549;42.286;22.688;2023-04-19T07:34:47;95171.44;;;16.07
32039;BMP280;18549;42.286;22.688;2023-04-19T07:37:16;95163.75;;;16.18
32039;BMP280;18549;42.286;22.688;2023-04-19T07:39:44;95169.94;;;16.23
32039;BMP280;18549;42.286;22.688;2023-04-19T07:42:11;95164.88;;;16.33
32039;BMP280;18549;42.286;22.688;2023-04-19T07:44:39;95157.06;;;16.36
32039;BMP280;18549;42.286;22.688;2023-04-19T07:47:05;95157.38;;;16.33
32039;BMP280;18549;42.286;22.688;2023-04-19T07:49:33;95148.94;;;16.34
32039;BMP280;18549;42.286;22.688;2023-04-19T07:52:00;95157.72;;;16.38
32039;BMP280;18549;42.286;22.688;2023-04-19T07:54:27;95160.22;;;16.38
32039;BMP280;18549;42.286;22.688;2023-04-19T07:56:56;95159.22;;;16.31
32039;BMP280;18549;42.286;22.688;2023-04-19T07:59:23;95152.06;;;16.36
32039;BMP280;18549;42.286;22.688;2023-04-19T08:01:50;95152.28;;;16.42
32039;BMP280;18549;42.286;22.688;2023-04-19T08:04:16;95150.38;;;16.53
32039;BMP280;18549;42.286;22.688;2023-04-19T08:06:44;95154.22;;;16.65
32039;BMP280;18549;42.286;22.688;2023-04-19T08:09:14;95144.94;;;16.75
32039;BMP280;18549;42.286;22.688;2023-04-19T08:11:40;95144.66;;;16.78
32039;BMP280;18549;42.286;22.688;2023-04-19T08:14:09;95146.63;;;16.92
32039;BMP280;18549;42.286;22.688;2023-04-19T08:16:35;95146.44;;;17.11
32039;BMP280;18549;42.286;22.688;2023-04-19T08:19:02;95139.53;;;17.22
32039;BMP280;18549;42.286;22.688;2023-04-19T08:21:29;95145.50;;;17.29
32039;BMP280;18549;42.286;22.688;2023-04-19T08:23:56;95135.63;;;17.27
32039;BMP280;18549;42.286;22.688;2023-04-19T08:26:22;95136.03;;;16.98
32039;BMP280;18549;42.286;22.688;2023-04-19T08:28:49;95135.31;;;17.05
32039;BMP280;18549;42.286;22.688;2023-04-19T08:31:18;95129.38;;;17.06
32039;BMP280;18549;42.286;22.688;2023-04-19T08:33:46;95135.66;;;17.10
32039;BMP280;18549;42.286;22.688;2023-04-19T08:36:12;95134.25;;;17.08
32039;BMP280;18549;42.286;22.688;2023-04-19T08:38:40;95131.22;;;17.04
32039;BMP280;18549;42.286;22.688;2023-04-19T08:41:10;95128.88;;;17.03
32039;BMP280;18549;42.286;22.688;2023-04-19T08:43:37;95125.44;;;17.04
32039;BMP280;18549;42.286;22.688;2023-04-19T08:46:05;95125.97;;;16.90
32039;BMP280;18549;42.286;22.688;2023-04-19T08:48:35;95130.25;;;16.97
32039;BMP280;18549;42.286;22.688;2023-04-19T08:51:03;95126.31;;;16.95
32039;BMP280;18549;42.286;22.688;2023-04-19T08:53:32;95125.88;;;16.99
32039;BMP280;18549;42.286;22.688;2023-04-19T08:56:02;95121.94;;;16.97
32039;BMP280;18549;42.286;22.688;2023-04-19T08:58:29;95128.88;;;17.03
32039;BMP280;18549;42.286;22.688;2023-04-19T09:00:57;95118.44;;;17.07
32039;BMP280;18549;42.286;22.688;2023-04-19T09:03:27;95116.13;;;17.14
32039;BMP280;18549;42.286;22.688;2023-04-19T09:05:55;95114.78;;;17.19
32039;BMP280;18549;42.286;22.688;2023-04-19T09:08:23;95115.59;;;17.27
32039;BMP280;18549;42.286;22.688;2023-04-19T09:10:54;95115.31;;;17.30
32039;BMP280;18549;42.286;22.688;2023-04-19T09:13:21;95114.69;;;17.28
32039;BMP280;18549;42.286;22.688;2023-04-19T09:15:48;95105.63;;;17.35
32039;BMP280;18549;42.286;22.688;2023-04-19T09:18:15;95106.41;;;17.36
32039;BMP280;18549;42.286;22.688;2023-04-19T09:20:43;95106.59;;;17.42
32039;BMP280;18549;42.286;22.688;2023-04-19T09:23:13;95115.03;;;17.41
32039;BMP280;18549;42.286;22.688;2023-04-19T09:25:51;95114.13;;;17.42
32039;BMP280;18549;42.286;22.688;2023-04-19T09:28:18;95129.63;;;17.20
32039;BMP280;18549;42.286;22.688;2023-04-19T09:30:45;95123.97;;;17.18
32039;BMP280;18549;42.286;22.688;2023-04-19T09:33:12;95121.13;;;17.14
32039;BMP280;18549;42.286;22.688;2023-04-19T09:35:40;95130.78;;;17.09
32039;BMP280;18549;42.286;22.688;2023-04-19T09:38:08;95122.81;;;17.05
32039;BMP280;18549;42.286;22.688;2023-04-19T09:40:38;95124.16;;;17.00
32039;BMP280;18549;42.286;22.688;2023-04-19T09:43:06;95123.16;;;16.93
32039;BMP280;18549;42.286;22.688;2023-04-19T09:45:40;95127.97;;;16.86
32039;BMP280;18549;42.286;22.688;2023-04-19T09:48:08;95126.09;;;16.88
32039;BMP280;18549;42.286;22.688;2023-04-19T09:50:50;95123.03;;;16.77
32039;BMP280;18549;42.286;22.688;2023-04-19T09:53:18;95129.13;;;16.75
32039;BMP280;18549;42.286;22.688;2023-04-19T09:55:47;95127.84;;;16.53
32039;BMP280;18549;42.286;22.688;2023-04-19T09:58:14;95131.44;;;16.51
32039;BMP280;18549;42.286;22.688;2023-04-19T10:00:43;95128.81;;;16.52
32039;BMP280;18549;42.286;22.688;2023-04-19T10:03:12;95126.91;;;16.54
32039;BMP280;18549;42.286;22.688;2023-04-19T10:05:40;95119.84;;;16.50
32039;BMP280;18549;42.286;22.688;2023-04-19T10:08:09;95138.81;;;16.52
32039;BMP280;18549;42.286;22.688;2023-04-19T10:10:36;95148.94;;;16.34
32039;BMP280;18549;42.286;22.688;2023-04-19T10:13:09;95141.00;;;16.38
32039;BMP280;18549;42.286;22.688;2023-04-19T10:15:37;95136.34;;;16.43
32039;BMP280;18549;42.286;22.688;2023-04-19T10:18:05;95141.53;;;16.42
32039;BMP280;18549;42.286;22.688;2023-04-19T10:20:49;95132.81;;;16.46
32039;BMP280;18549;42.286;22.688;2023-04-19T10:23:18;95139.44;;;16.37
32039;BMP280;18549;42.286;22.688;2023-04-19T10:25:46;95133.84;;;16.43
32039;BMP280;18549;42.286;22.688;2023-04-19T10:28:15;95141.22;;;16.45
32039;BMP280;18549;42.286;22.688;2023-04-19T10:30:52;95133.22;;;16.41
32039;BMP280;18549;42.286;22.688;2023-04-19T10:33:24;95132.00;;;16.45
32039;BMP280;18549;42.286;22.688;2023-04-19T10:35:54;95127.28;;;16.42
32039;BMP280;18549;42.286;22.688;2023-04-19T10:38:35;95138.31;;;16.32
32039;BMP280;18549;42.286;22.688;2023-04-19T10:41:02;95138.37;;;16.40
32039;BMP280;18549;42.286;22.688;2023-04-19T10:43:33;95128.41;;;16.48
32039;BMP280;18549;42.286;22.688;2023-04-19T10:46:05;95128.81;;;16.52
32039;BMP280;18549;42.286;22.688;2023-04-19T10:48:40;95125.56;;;16.43
32039;BMP280;18549;42.286;22.688;2023-04-19T10:51:14;95124.72;;;16.51
32039;BMP280;18549;42.286;22.688;2023-04-19T10:53:56;95123.84;;;16.60
32039;BMP280;18549;42.286;22.688;2023-04-19T10:57:01;95120.41;;;16.61
32039;BMP280;18549;42.286;22.688;2023-04-19T10:59:31;95125.50;;;16.69
32039;BMP280;18549;42.286;22.688;2023-04-19T11:01:59;95114.41;;;16.72
32039;BMP280;18549;42.286;22.688;2023-04-19T11:04:58;95106.25;;;16.70
32039;BMP280;18549;42.286;22.688;2023-04-19T11:07:25;95114.06;;;16.67
32039;BMP280;18549;42.286;22.688;2023-04-19T11:09:52;95107.69;;;16.72
32039;BMP280;18549;42.286;22.688;2023-04-19T11:12:20;95101.16;;;16.79
32039;BMP280;18549;42.286;22.688;2023-04-19T11:14:51;95105.28;;;16.88
32039;BMP280;18549;42.286;22.688;2023-04-19T11:17:20;95109.22;;;16.90
32039;BMP280;18549;42.286;22.688;2023-04-19T11:19:53;95107.25;;;16.77
32039;BMP280;18549;42.286;22.688;2023-04-19T11:22:25;95094.44;;;16.80
32039;BMP280;18549;42.286;22.688;2023-04-19T11:24:52;95098.22;;;16.83
32039;BMP280;18549;42.286;22.688;2023-04-19T11:27:20;95094.41;;;16.97
32039;BMP280;18549;42.286;22.688;2023-04-19T11:29:52;95097.06;;;17.13
32039;BMP280;18549;42.286;22.688;2023-04-19T11:32:27;95092.06;;;17.20
32039;BMP280;18549;42.286;22.688;2023-04-19T11:34:55;95094.00;;;17.26
32039;BMP280;18549;42.286;22.688;2023-04-19T11:37:22;95090.41;;;17.29
32039;BMP280;18549;42.286;22.688;2023-04-19T11:39:50;95082.44;;;17.33
32039;BMP280;18549;42.286;22.688;2023-04-19T11:42:19;95082.12;;;17.36
32039;BMP280;18549;42.286;22.688;2023-04-19T11:44:49;95089.53;;;17.38
32039;BMP280;18549;42.286;22.688;2023-04-19T11:47:18;95098.75;;;17.37
32039;BMP280;18549;42.286;22.688;2023-04-19T11:49:47;95090.59;;;17.35
32039;BMP280;18549;42.286;22.688;2023-04-19T11:52:20;95105.41;;;17.21
32039;BMP280;18549;42.286;22.688;2023-04-19T11:54:48;95101.75;;;17.16
32039;BMP280;18549;42.286;22.688;2023-04-19T11:57:26;95101.91;;;17.14
32039;BMP280;18549;42.286;22.688;2023-04-19T12:00:04;95099.81;;;17.10
32039;BMP280;18549;42.286;22.688;2023-04-19T12:02:38;95098.84;;;17.03
32039;BMP280;18549;42.286;22.688;2023-04-19T12:05:09;95092.41;;;17.00
32039;BMP280;18549;42.286;22.688;2023-04-19T12:07:36;95095.41;;;17.04
32039;BMP280;18549;42.286;22.688;2023-04-19T12:10:10;95094.41;;;16.97
32039;BMP280;18549;42.286;22.688;2023-04-19T12:12:37;95092.41;;;17.00
32039;BMP280;18549;42.286;22.688;2023-04-19T12:15:07;95094.72;;;16.94
32039;BMP280;18549;42.286;22.688;2023-04-19T12:17:34;95093.44;;;16.90
32039;BMP280;18549;42.286;22.688;2023-04-19T12:20:29;95095.94;;;16.90
32039;BMP280;18549;42.286;22.688;2023-04-19T12:22:57;95096.03;;;16.81
32039;BMP280;18549;42.286;22.688;2023-04-19T12:25:27;95085.66;;;16.76
32039;BMP280;18549;42.286;22.688;2023-04-19T12:27:54;95082.38;;;16.75
32039;BMP280;18549;42.286;22.688;2023-04-19T12:30:21;95081.00;;;16.81
32039;BMP280;18549;42.286;22.688;2023-04-19T12:32:48;95076.84;;;16.89
32039;BMP280;18549;42.286;22.688;2023-04-19T12:35:16;95075.47;;;16.94
32039;BMP280;18549;42.286;22.688;2023-04-19T12:37:44;95067.81;;;16.96
32039;BMP280;18549;42.286;22.688;2023-04-19T12:40:14;95061.13;;;17.04
32039;BMP280;18549;42.286;22.688;2023-04-19T12:42:41;95059.91;;;17.08
32039;BMP280;18549;42.286;22.688;2023-04-19T12:45:09;95063.28;;;17.17
32039;BMP280;18549;42.286;22.688;2023-04-19T12:47:36;95061.44;;;17.26
32039;BMP280;18549;42.286;22.688;2023-04-19T12:50:03;95055.22;;;17.30
32039;BMP280;18549;42.286;22.688;2023-04-19T12:52:30;95055.69;;;17.34
32039;BMP280;18549;42.286;22.688;2023-04-19T12:54:58;95059.59;;;17.36
32039;BMP280;18549;42.286;22.688;2023-04-19T12:57:25;95059.56;;;17.28
32039;BMP280;18549;42.286;22.688;2023-04-19T12:59:52;95055.66;;;17.26
32039;BMP280;18549;42.286;22.688;2023-04-19T13:02:18;95054.37;;;17.22
32039;BMP280;18549;42.286;22.688;2023-04-19T13:04:45;95056.44;;;17.26
32039;BMP280;18549;42.286;22.688;2023-04-19T13:07:12;95057.50;;;17.24
32039;BMP280;18549;42.286;22.688;2023-04-19T13:09:39;95061.00;;;17.31
32039;BMP280;18549;42.286;22.688;2023-04-19T13:12:09;95060.53;;;17.35
32039;BMP280;18549;42.286;22.688;2023-04-19T13:14:36;95057.41;;;17.33
32039;BMP280;18549;42.286;22.688;2023-04-19T13:17:03;95059.25;;;17.31
32039;BMP280;18549;42.286;22.688;2023-04-19T13:19:30;95056.81;;;17.39
32039;BMP280;18549;42.286;22.688;2023-04-19T13:21:56;95056.50;;;17.42
32039;BMP280;18549;42.286;22.688;2023-04-19T13:24:23;95057.78;;;17.46
32039;BMP280;18549;42.286;22.688;2023-04-19T13:26:51;95049.63;;;17.44
32039;BMP280;18549;42.286;22.688;2023-04-19T13:29:19;95052.28;;;17.43
32039;BMP280;18549;42.286;22.688;2023-04-19T13:31:46;95056.19;;;17.45
32039;BMP280;18549;42.286;22.688;2023-04-19T13:34:13;95043.34;;;17.40
32039;BMP280;18549;42.286;22.688;2023-04-19T13:36:40;95039.87;;;17.41
32039;BMP280;18549;42.286;22.688;2023-04-19T13:39:07;95039.09;;;17.41
32039;BMP280;18549;42.286;22.688;2023-04-19T13:41:34;95045.66;;;17.34
32039;BMP280;18549;42.286;22.688;2023-04-19T13:44:01;95044.63;;;17.44
32039;BMP280;18549;42.286;22.688;2023-04-19T13:46:29;95041.81;;;17.47
32039;BMP280;18549;42.286;22.688;2023-04-19T13:48:56;95044.31;;;17.47
32039;BMP280;18549;42.286;22.688;2023-04-19T13:51:22;95035.06;;;17.48
32039;BMP280;18549;42.286;22.688;2023-04-19T13:53:49;95042.75;;;17.46
32039;BMP280;18549;42.286;22.688;2023-04-19T13:56:16;95041.47;;;17.42
32039;BMP280;18549;42.286;22.688;2023-04-19T13:58:43;95038.91;;;17.34
32039;BMP280;18549;42.286;22.688;2023-04-19T14:01:15;95046.28;;;17.36
32039;BMP280;18549;42.286;22.688;2023-04-19T14:03:43;95050.22;;;17.38